sensor_id;sensor_type;location;lat;lon;timestamp;pressure;altitude;pressure_sealevel;temperature;humidity
56504;BME280;48812;51.606;-0.114;2023-03-13T00:02:14;98927.94;;;17.13;60.63
56504;BME280;48812;51.606;-0.114;2023-03-13T00:04:46;98903.16;;;17.11;60.55
56504;BME280;48812;51.606;-0.114;2023-03-13T00:07:19;98897.84;;;17.11;60.04
56504;BME280;48812;51.606;-0.114;2023-03-13T00:09:51;98904.97;;;17.10;60.24
56504;BME280;48812;51.606;-0.114;2023-03-13T00:12:23;98892.59;;;17.09;60.42
56504;BME280;48812;51.606;-0.114;2023-03-13T00:14:55;98894.41;;;17.09;60.02
56504;BME280;48812;51.606;-0.114;2023-03-13T00:17:27;98893.56;;;17.08;59.87
56504;BME280;48812;51.606;-0.114;2023-03-13T00:20:00;98884.72;;;17.08;60.05
56504;BME280;48812;51.606;-0.114;2023-03-13T00:22:32;98882.25;;;17.05;60.46
56504;BME280;48812;51.606;-0.114;2023-03-13T00:25:05;98874.13;;;17.06;60.25
56504;BME280;48812;51.606;-0.114;2023-03-13T00:27:37;98872.44;;;17.05;60.00
56504;BME280;48812;51.606;-0.114;2023-03-13T00:30:09;98862.59;;;17.06;60.01
56504;BME280;48812;51.606;-0.114;2023-03-13T00:32:43;98865.41;;;17.04;60.10
56504;BME280;48812;51.606;-0.114;2023-03-13T00:35:17;98864.53;;;17.04;60.51
56504;BME280;48812;51.606;-0.114;2023-03-13T00:37:49;98857.50;;;17.03;60.15
56504;BME280;48812;51.606;-0.114;2023-03-13T00:40:21;98851.28;;;17.02;60.09
56504;BME280;48812;51.606;-0.114;2023-03-13T00:42:53;98855.78;;;17.02;60.02
56504;BME280;48812;51.606;-0.114;2023-03-13T00:45:26;98856.75;;;17.01;60.65
56504;BME280;48812;51.606;-0.114;2023-03-13T00:47:58;98856.75;;;17.01;59.95
56504;BME280;48812;51.606;-0.114;2023-03-13T00:50:30;98854.06;;;17.01;60.02
56504;BME280;48812;51.606;-0.114;2023-03-13T00:53:03;98831.03;;;17.00;60.18
56504;BME280;48812;51.606;-0.114;2023-03-13T00:55:36;98852.41;;;17.00;60.53
56504;BME280;48812;51.606;-0.114;2023-03-13T00:58:08;98845.34;;;16.99;59.88
56504;BME280;48812;51.606;-0.114;2023-03-13T01:00:40;98848.97;;;16.98;60.11
56504;BME280;48812;51.606;-0.114;2023-03-13T01:03:13;98846.28;;;16.98;60.40
56504;BME280;48812;51.606;-0.114;2023-03-13T01:05:54;98827.75;;;16.96;60.15
56504;BME280;48812;51.606;-0.114;2023-03-13T01:08:26;98839.28;;;16.96;60.06
56504;BME280;48812;51.606;-0.114;2023-03-13T01:11:10;98815.25;;;16.96;60.13
56504;BME280;48812;51.606;-0.114;2023-03-13T01:13:42;98825.19;;;16.94;59.96
56504;BME280;48812;51.606;-0.114;2023-03-13T01:16:16;98812.81;;;16.93;60.33
56504;BME280;48812;51.606;-0.114;2023-03-13T01:18:50;98819.09;;;16.92;59.88
56504;BME280;48812;51.606;-0.114;2023-03-13T01:21:24;98822.75;;;16.91;59.98
56504;BME280;48812;51.606;-0.114;2023-03-13T01:24:00;98828.09;;;16.91;59.90
56504;BME280;48812;51.606;-0.114;2023-03-13T01:26:33;98839.72;;;16.90;60.10
56504;BME280;48812;51.606;-0.114;2023-03-13T01:29:05;98835.22;;;16.91;60.34
56504;BME280;48812;51.606;-0.114;2023-03-13T01:31:37;98817.53;;;16.90;60.37
56504;BME280;48812;51.606;-0.114;2023-03-13T01:34:12;98832.81;;;16.88;59.92
56504;BME280;48812;51.606;-0.114;2023-03-13T01:36:44;98839.00;;;16.88;60.08
56504;BME280;48812;51.606;-0.114;2023-03-13T01:39:21;98826.59;;;16.87;59.84
56504;BME280;48812;51.606;-0.114;2023-03-13T01:41:53;98832.81;;;16.88;60.42
56504;BME280;48812;51.606;-0.114;2023-03-13T01:44:26;98830.25;;;16.86;59.87
56504;BME280;48812;51.606;-0.114;2023-03-13T01:46:59;98819.59;;;16.86;59.92
56504;BME280;48812;51.606;-0.114;2023-03-13T01:49:39;98811.59;;;16.86;59.98
56504;BME280;48812;51.606;-0.114;2023-03-13T01:52:19;98801.84;;;16.85;60.18
56504;BME280;48812;51.606;-0.114;2023-03-13T01:55:10;98788.63;;;16.84;60.09
56504;BME280;48812;51.606;-0.114;2023-03-13T01:57:49;98787.78;;;16.83;59.75
56504;BME280;48812;51.606;-0.114;2023-03-13T02:00:29;98781.56;;;16.83;59.92
56504;BME280;48812;51.606;-0.114;2023-03-13T02:03:05;98772.72;;;16.82;60.17
56504;BME280;48812;51.606;-0.114;2023-03-13T02:05:39;98765.69;;;16.81;59.72
56504;BME280;48812;51.606;-0.114;2023-03-13T02:08:17;98773.69;;;16.81;59.93
56504;BME280;48812;51.606;-0.114;2023-03-13T02:10:50;98741.66;;;16.81;59.97
56504;BME280;48812;51.606;-0.114;2023-03-13T02:13:25;98731.97;;;16.80;59.97
56504;BME280;48812;51.606;-0.114;2023-03-13T02:15:58;98753.31;;;16.80;59.73
56504;BME280;48812;51.606;-0.114;2023-03-13T02:18:30;98743.59;;;16.79;60.30
56504;BME280;48812;51.606;-0.114;2023-03-13T02:21:07;98744.69;;;16.76;59.76
56504;BME280;48812;51.606;-0.114;2023-03-13T02:23:43;98732.19;;;16.77;59.91
56504;BME280;48812;51.606;-0.114;2023-03-13T02:26:20;98735.81;;;16.76;59.66
56504;BME280;48812;51.606;-0.114;2023-03-13T02:28:54;98727.81;;;16.76;60.04
56504;BME280;48812;51.606;-0.114;2023-03-13T02:31:26;98712.78;;;16.75;60.30
56504;BME280;48812;51.606;-0.114;2023-03-13T02:33:58;98711.09;;;16.74;59.94
56504;BME280;48812;51.606;-0.114;2023-03-13T02:36:32;98697.75;;;16.74;59.94
56504;BME280;48812;51.606;-0.114;2023-03-13T02:39:04;98710.34;;;16.72;59.86
56504;BME280;48812;51.606;-0.114;2023-03-13T02:41:38;98710.34;;;16.72;59.80
56504;BME280;48812;51.606;-0.114;2023-03-13T02:44:11;98694.34;;;16.72;60.12
56504;BME280;48812;51.606;-0.114;2023-03-13T02:46:48;98684.63;;;16.71;59.76
56504;BME280;48812;51.606;-0.114;2023-03-13T02:49:28;98692.63;;;16.71;59.66
56504;BME280;48812;51.606;-0.114;2023-03-13T02:52:08;98683.91;;;16.69;59.78
56504;BME280;48812;51.606;-0.114;2023-03-13T02:54:46;98674.06;;;16.69;60.34
56504;BME280;48812;51.606;-0.114;2023-03-13T02:57:24;98666.19;;;16.68;60.03
56504;BME280;48812;51.606;-0.114;2023-03-13T02:59:56;98667.06;;;16.68;59.89
56504;BME280;48812;51.606;-0.114;2023-03-13T03:02:29;98657.22;;;16.69;59.95
56504;BME280;48812;51.606;-0.114;2023-03-13T03:05:03;98647.63;;;16.66;59.78
56504;BME280;48812;51.606;-0.114;2023-03-13T03:07:35;98652.13;;;16.66;59.63
56504;BME280;48812;51.606;-0.114;2023-03-13T03:10:10;98643.28;;;16.65;59.63
56504;BME280;48812;51.606;-0.114;2023-03-13T03:12:46;98647.75;;;16.65;59.67
56504;BME280;48812;51.606;-0.114;2023-03-13T03:15:18;98632.72;;;16.64;60.06
56504;BME280;48812;51.606;-0.114;2023-03-13T03:17:52;98637.22;;;16.63;59.70
56504;BME280;48812;51.606;-0.114;2023-03-13T03:20:24;98636.34;;;16.63;59.79
56504;BME280;48812;51.606;-0.114;2023-03-13T03:22:56;98647.88;;;16.63;59.70
56504;BME280;48812;51.606;-0.114;2023-03-13T03:25:30;98648.00;;;16.62;59.55
56504;BME280;48812;51.606;-0.114;2023-03-13T03:28:03;98637.34;;;16.62;59.92
56504;BME280;48812;51.606;-0.114;2023-03-13T03:30:35;98652.59;;;16.59;59.93
56504;BME280;48812;51.606;-0.114;2023-03-13T03:33:08;98626.78;;;16.60;59.73
56504;BME280;48812;51.606;-0.114;2023-03-13T03:35:40;98641.91;;;16.59;59.62
56504;BME280;48812;51.606;-0.114;2023-03-13T03:38:13;98637.56;;;16.58;59.71
56504;BME280;48812;51.606;-0.114;2023-03-13T03:40:46;98629.56;;;16.58;59.67
56504;BME280;48812;51.606;-0.114;2023-03-13T03:43:18;98608.22;;;16.58;59.74
56504;BME280;48812;51.606;-0.114;2023-03-13T03:45:50;98615.47;;;16.56;60.09
56504;BME280;48812;51.606;-0.114;2023-03-13T03:48:24;98619.13;;;16.55;59.75
56504;BME280;48812;51.606;-0.114;2023-03-13T03:50:57;98622.63;;;16.56;59.64
56504;BME280;48812;51.606;-0.114;2023-03-13T03:53:30;98617.41;;;16.54;59.74
56504;BME280;48812;51.606;-0.114;2023-03-13T03:56:03;98604.06;;;16.54;60.19
56504;BME280;48812;51.606;-0.114;2023-03-13T03:58:36;98610.41;;;16.53;59.90
56504;BME280;48812;51.606;-0.114;2023-03-13T04:01:17;98608.69;;;16.52;60.03
56504;BME280;48812;51.606;-0.114;2023-03-13T04:03:50;98612.19;;;16.53;59.71
56504;BME280;48812;51.606;-0.114;2023-03-13T04:06:22;98606.03;;;16.52;60.16
56504;BME280;48812;51.606;-0.114;2023-03-13T04:08:55;98612.31;;;16.51;60.34
56504;BME280;48812;51.606;-0.114;2023-03-13T04:11:29;98606.13;;;16.51;60.22
56504;BME280;48812;51.606;-0.114;2023-03-13T04:14:02;98639.09;;;16.50;60.35
56504;BME280;48812;51.606;-0.114;2023-03-13T04:16:35;98646.25;;;16.49;59.89
56504;BME280;48812;51.606;-0.114;2023-03-13T04:19:10;98629.41;;;16.49;59.79
56504;BME280;48812;51.606;-0.114;2023-03-13T04:21:42;98628.53;;;16.48;60.02
56504;BME280;48812;51.606;-0.114;2023-03-13T04:24:21;98644.56;;;16.48;60.13
56504;BME280;48812;51.606;-0.114;2023-03-13T04:26:54;98625.16;;;16.46;59.77
56504;BME280;48812;51.606;-0.114;2023-03-13T04:29:26;98629.66;;;16.46;59.91
56504;BME280;48812;51.606;-0.114;2023-03-13T04:32:17;98627.09;;;16.44;59.78
56504;BME280;48812;51.606;-0.114;2023-03-13T04:35:09;98617.38;;;16.43;60.02
56504;BME280;48812;51.606;-0.114;2023-03-13T04:37:50;98622.72;;;16.43;60.24
56504;BME280;48812;51.606;-0.114;2023-03-13T04:40:41;98614.72;;;16.43;59.97
56504;BME280;48812;51.606;-0.114;2023-03-13T04:43:32;98607.69;;;16.42;59.87
56504;BME280;48812;51.606;-0.114;2023-03-13T04:46:23;98591.69;;;16.42;60.06
56504;BME280;48812;51.606;-0.114;2023-03-13T04:49:14;98590.00;;;16.41;59.90
56504;BME280;48812;51.606;-0.114;2023-03-13T04:51:58;98592.66;;;16.41;59.62
56504;BME280;48812;51.606;-0.114;2023-03-13T04:54:54;98587.44;;;16.39;60.07
56504;BME280;48812;51.606;-0.114;2023-03-13T04:57:44;98592.78;;;16.39;59.89
56504;BME280;48812;51.606;-0.114;2023-03-13T05:00:32;98577.75;;;16.38;60.18
56504;BME280;48812;51.606;-0.114;2023-03-13T05:03:24;98561.75;;;16.38;60.09
56504;BME280;48812;51.606;-0.114;2023-03-13T05:06:17;98559.09;;;16.38;59.89
56504;BME280;48812;51.606;-0.114;2023-03-13T05:09:08;98559.22;;;16.37;59.90
56504;BME280;48812;51.606;-0.114;2023-03-13T05:11:57;98556.53;;;16.37;60.13
56504;BME280;48812;51.606;-0.114;2023-03-13T05:14:53;98564.53;;;16.37;59.95
56504;BME280;48812;51.606;-0.114;2023-03-13T05:17:37;98561.00;;;16.36;59.90
56504;BME280;48812;51.606;-0.114;2023-03-13T05:20:25;98552.16;;;16.36;59.87
56504;BME280;48812;51.606;-0.114;2023-03-13T05:23:20;98554.81;;;16.36;59.92
56504;BME280;48812;51.606;-0.114;2023-03-13T05:26:13;98561.13;;;16.35;59.86
56504;BME280;48812;51.606;-0.114;2023-03-13T05:29:02;98569.13;;;16.35;59.87
56504;BME280;48812;51.606;-0.114;2023-03-13T05:31:46;98564.78;;;16.34;59.86
56504;BME280;48812;51.606;-0.114;2023-03-13T05:34:37;98575.56;;;16.32;59.89
56504;BME280;48812;51.606;-0.114;2023-03-13T05:37:27;98585.34;;;16.32;59.91
56504;BME280;48812;51.606;-0.114;2023-03-13T05:40:14;98580.91;;;16.32;59.92
56504;BME280;48812;51.606;-0.114;2023-03-13T05:43:06;98570.34;;;16.31;59.99
56504;BME280;48812;51.606;-0.114;2023-03-13T05:46:11;98569.50;;;16.30;60.01
56504;BME280;48812;51.606;-0.114;2023-03-13T05:49:00;98565.97;;;16.30;60.01
56504;BME280;48812;51.606;-0.114;2023-03-13T05:52:01;98573.25;;;16.28;59.87
56504;BME280;48812;51.606;-0.114;2023-03-13T05:54:40;98568.75;;;16.28;59.92
56504;BME280;48812;51.606;-0.114;2023-03-13T05:57:35;98567.91;;;16.28;60.03
56504;BME280;48812;51.606;-0.114;2023-03-13T06:00:35;98565.34;;;16.26;59.78
56504;BME280;48812;51.606;-0.114;2023-03-13T06:03:37;98576.03;;;16.26;60.09
56504;BME280;48812;51.606;-0.114;2023-03-13T06:06:10;98569.84;;;16.26;59.81
56504;BME280;48812;51.606;-0.114;2023-03-13T06:08:48;98557.47;;;16.25;59.95
56504;BME280;48812;51.606;-0.114;2023-03-13T06:11:22;98575.31;;;16.24;59.95
56504;BME280;48812;51.606;-0.114;2023-03-13T06:13:56;98567.31;;;16.24;59.88
56504;BME280;48812;51.606;-0.114;2023-03-13T06:16:46;98556.75;;;16.22;59.80
56504;BME280;48812;51.606;-0.114;2023-03-13T06:19:22;98563.91;;;16.22;59.84
56504;BME280;48812;51.606;-0.114;2023-03-13T06:21:55;98572.75;;;16.22;59.81
56504;BME280;48812;51.606;-0.114;2023-03-13T06:24:27;98557.72;;;16.21;59.68
56504;BME280;48812;51.606;-0.114;2023-03-13T06:26:59;98567.53;;;16.21;60.01
56504;BME280;48812;51.606;-0.114;2023-03-13T06:29:31;98553.34;;;16.20;59.82
56504;BME280;48812;51.606;-0.114;2023-03-13T06:32:04;98551.66;;;16.19;59.77
56504;BME280;48812;51.606;-0.114;2023-03-13T06:34:36;98545.47;;;16.19;59.80
56504;BME280;48812;51.606;-0.114;2023-03-13T06:37:08;98536.59;;;16.18;59.72
56504;BME280;48812;51.606;-0.114;2023-03-13T06:39:41;98557.94;;;16.18;59.71
56504;BME280;48812;51.606;-0.114;2023-03-13T06:42:13;98547.28;;;16.18;59.71
56504;BME280;48812;51.606;-0.114;2023-03-13T06:44:46;98532.16;;;16.19;59.95
56504;BME280;48812;51.606;-0.114;2023-03-13T06:47:18;98511.66;;;16.19;59.67
56504;BME280;48812;51.606;-0.114;2023-03-13T06:49:50;98522.31;;;16.19;59.81
56504;BME280;48812;51.606;-0.114;2023-03-13T06:52:22;98513.38;;;16.20;60.07
56504;BME280;48812;51.606;-0.114;2023-03-13T06:55:12;98519.41;;;16.22;59.82
56504;BME280;48812;51.606;-0.114;2023-03-13T06:57:48;98513.09;;;16.23;59.56
56504;BME280;48812;51.606;-0.114;2023-03-13T07:00:20;98501.38;;;16.26;59.53
56504;BME280;48812;51.606;-0.114;2023-03-13T07:02:53;98507.41;;;16.28;59.57
56504;BME280;48812;51.606;-0.114;2023-03-13T07:05:26;98485.97;;;16.30;59.60
56504;BME280;48812;51.606;-0.114;2023-03-13T07:07:58;98483.06;;;16.33;59.77
56504;BME280;48812;51.606;-0.114;2023-03-13T07:10:30;98493.63;;;16.34;59.73
56504;BME280;48812;51.606;-0.114;2023-03-13T07:13:03;98483.53;;;16.38;59.54
56504;BME280;48812;51.606;-0.114;2023-03-13T07:15:35;98491.31;;;16.41;59.77
56504;BME280;48812;51.606;-0.114;2023-03-13T07:18:07;98497.38;;;16.43;59.70
56504;BME280;48812;51.606;-0.114;2023-03-13T07:20:39;98494.47;;;16.46;59.28
56504;BME280;48812;51.606;-0.114;2023-03-13T07:23:11;98499.56;;;16.49;59.48
56504;BME280;48812;51.606;-0.114;2023-03-13T07:25:44;98485.97;;;16.52;59.76
56504;BME280;48812;51.606;-0.114;2023-03-13T07:28:23;98483.06;;;16.55;59.50
56504;BME280;48812;51.606;-0.114;2023-03-13T07:31:04;98489.97;;;16.58;59.33
56504;BME280;48812;51.606;-0.114;2023-03-13T07:33:37;98478.34;;;16.59;59.53
56504;BME280;48812;51.606;-0.114;2023-03-13T07:36:10;98486.94;;;16.63;59.70
56504;BME280;48812;51.606;-0.114;2023-03-13T07:38:46;98477.97;;;16.64;59.93
56504;BME280;48812;51.606;-0.114;2023-03-13T07:41:19;98470.56;;;16.67;59.36
56504;BME280;48812;51.606;-0.114;2023-03-13T07:43:51;98475.78;;;16.69;59.51
56504;BME280;48812;51.606;-0.114;2023-03-13T07:46:26;98454.31;;;16.70;59.78
56504;BME280;48812;51.606;-0.114;2023-03-13T07:48:58;98462.19;;;16.72;59.46
56504;BME280;48812;51.606;-0.114;2023-03-13T07:51:30;98471.75;;;16.74;59.37
56504;BME280;48812;51.606;-0.114;2023-03-13T07:54:14;98463.63;;;16.76;59.81
56504;BME280;48812;51.606;-0.114;2023-03-13T07:56:47;98457.34;;;16.77;59.45
56504;BME280;48812;51.606;-0.114;2023-03-13T07:59:19;98458.03;;;16.79;59.43
56504;BME280;48812;51.606;-0.114;2023-03-13T08:01:51;98460.59;;;16.81;59.03
56504;BME280;48812;51.606;-0.114;2023-03-13T08:04:24;98463.13;;;16.82;59.14
56504;BME280;48812;51.606;-0.114;2023-03-13T08:06:56;98460.47;;;16.82;59.33
56504;BME280;48812;51.606;-0.114;2023-03-13T08:09:30;98457.69;;;16.84;59.54
56504;BME280;48812;51.606;-0.114;2023-03-13T08:12:03;98470.06;;;16.85;59.15
56504;BME280;48812;51.606;-0.114;2023-03-13T08:14:36;98458.41;;;16.86;59.14
56504;BME280;48812;51.606;-0.114;2023-03-13T08:17:08;98473.44;;;16.87;59.40
56504;BME280;48812;51.606;-0.114;2023-03-13T08:19:40;98466.28;;;16.87;59.35
56504;BME280;48812;51.606;-0.114;2023-03-13T08:22:12;98446.50;;;16.90;59.79
56504;BME280;48812;51.606;-0.114;2023-03-13T08:24:44;98443.59;;;16.93;59.26
56504;BME280;48812;51.606;-0.114;2023-03-13T08:27:16;98445.16;;;16.95;59.23
56504;BME280;48812;51.606;-0.114;2023-03-13T08:29:48;98459.22;;;16.98;59.27
56504;BME280;48812;51.606;-0.114;2023-03-13T08:32:20;98451.94;;;17.00;59.44
56504;BME280;48812;51.606;-0.114;2023-03-13T08:34:53;98447.44;;;17.00;59.34
56504;BME280;48812;51.606;-0.114;2023-03-13T08:37:27;98443.69;;;17.03;59.61
56504;BME280;48812;51.606;-0.114;2023-03-13T08:39:59;98440.91;;;17.04;59.20
56504;BME280;48812;51.606;-0.114;2023-03-13T08:42:33;98444.41;;;17.05;59.67
56504;BME280;48812;51.606;-0.114;2023-03-13T08:45:06;98453.13;;;17.07;59.32
56504;BME280;48812;51.606;-0.114;2023-03-13T08:47:39;98444.16;;;17.08;59.54
56504;BME280;48812;51.606;-0.114;2023-03-13T08:50:11;98443.16;;;17.09;59.22
56504;BME280;48812;51.606;-0.114;2023-03-13T08:52:44;98419.13;;;17.09;59.53
56504;BME280;48812;51.606;-0.114;2023-03-13T08:55:17;98420.84;;;17.10;59.74
56504;BME280;48812;51.606;-0.114;2023-03-13T08:57:50;98420.84;;;17.10;59.18
56504;BME280;48812;51.606;-0.114;2023-03-13T09:00:22;98413.53;;;17.12;59.25
56504;BME280;48812;51.606;-0.114;2023-03-13T09:02:58;98432.09;;;17.13;59.48
56504;BME280;48812;51.606;-0.114;2023-03-13T09:05:30;98416.94;;;17.14;59.85
56504;BME280;48812;51.606;-0.114;2023-03-13T09:08:02;98432.94;;;17.14;59.28
56504;BME280;48812;51.606;-0.114;2023-03-13T09:10:34;98423.97;;;17.15;59.26
56504;BME280;48812;51.606;-0.114;2023-03-13T09:13:07;98413.28;;;17.15;59.41
56504;BME280;48812;51.606;-0.114;2023-03-13T09:15:39;98427.34;;;17.17;59.73
56504;BME280;48812;51.606;-0.114;2023-03-13T09:18:11;98435.50;;;17.15;59.50
56504;BME280;48812;51.606;-0.114;2023-03-13T09:20:43;98426.66;;;17.15;59.83
56504;BME280;48812;51.606;-0.114;2023-03-13T09:23:16;98420.34;;;17.16;59.76
56504;BME280;48812;51.606;-0.114;2023-03-13T09:25:48;98420.34;;;17.16;59.70
56504;BME280;48812;51.606;-0.114;2023-03-13T09:28:24;98409.66;;;17.16;59.26
56504;BME280;48812;51.606;-0.114;2023-03-13T09:31:04;98422.03;;;17.17;59.19
56504;BME280;48812;51.606;-0.114;2023-03-13T09:33:39;98397.03;;;17.18;59.07
56504;BME280;48812;51.606;-0.114;2023-03-13T09:36:11;98408.53;;;17.19;58.93
56504;BME280;48812;51.606;-0.114;2023-03-13T09:38:44;98406.75;;;17.19;59.17
56504;BME280;48812;51.606;-0.114;2023-03-13T09:52:01;98414.47;;;17.22;59.19
56504;BME280;48812;51.606;-0.114;2023-03-13T09:54:42;98418.13;;;17.21;59.24
56504;BME280;48812;51.606;-0.114;2023-03-13T09:57:23;98428.81;;;17.21;59.37
56504;BME280;48812;51.606;-0.114;2023-03-13T10:02:38;98432.44;;;17.20;59.44
56504;BME280;48812;51.606;-0.114;2023-03-13T10:07:47;98424.44;;;17.20;59.48
56504;BME280;48812;51.606;-0.114;2023-03-13T10:10:20;98436.00;;;17.21;58.66
56504;BME280;48812;51.606;-0.114;2023-03-13T10:12:56;98436.81;;;17.21;59.03
56504;BME280;48812;51.606;-0.114;2023-03-13T10:15:37;98445.69;;;17.22;59.51
56504;BME280;48812;51.606;-0.114;2023-03-13T10:18:17;98439.50;;;17.21;59.02
56504;BME280;48812;51.606;-0.114;2023-03-13T10:20:53;98428.81;;;17.21;59.26
56504;BME280;48812;51.606;-0.114;2023-03-13T10:26:23;98453.81;;;17.20;59.11
56504;BME280;48812;51.606;-0.114;2023-03-13T10:28:59;98464.50;;;17.20;59.23
56504;BME280;48812;51.606;-0.114;2023-03-13T10:31:37;98468.16;;;17.19;58.90
56504;BME280;48812;51.606;-0.114;2023-03-13T10:34:11;98467.28;;;17.19;59.32
56504;BME280;48812;51.606;-0.114;2023-03-13T10:36:45;98464.75;;;17.17;59.15
56504;BME280;48812;51.606;-0.114;2023-03-13T10:39:18;98461.09;;;17.18;59.25
56504;BME280;48812;51.606;-0.114;2023-03-13T10:42:07;98445.94;;;17.19;59.20
56504;BME280;48812;51.606;-0.114;2023-03-13T10:44:43;98466.44;;;17.18;58.61
56504;BME280;48812;51.606;-0.114;2023-03-13T10:47:16;98469.13;;;17.18;58.82
56504;BME280;48812;51.606;-0.114;2023-03-13T10:49:51;98462.81;;;17.19;59.07
56504;BME280;48812;51.606;-0.114;2023-03-13T10:52:31;98441.47;;;17.19;59.10
56504;BME280;48812;51.606;-0.114;2023-03-13T10:55:04;98444.97;;;17.20;58.74
56504;BME280;48812;51.606;-0.114;2023-03-13T10:57:37;98448.47;;;17.20;58.93
56504;BME280;48812;51.606;-0.114;2023-03-13T11:02:56;98431.34;;;17.23;58.85
56504;BME280;48812;51.606;-0.114;2023-03-13T11:05:29;98442.88;;;17.23;58.83
56504;BME280;48812;51.606;-0.114;2023-03-13T11:10:54;98415.97;;;17.26;58.54
56504;BME280;48812;51.606;-0.114;2023-03-13T11:13:49;98405.97;;;17.28;59.11
56504;BME280;48812;51.606;-0.114;2023-03-13T11:16:21;98403.19;;;17.30;58.24
56504;BME280;48812;51.606;-0.114;2023-03-13T11:35:18;98414.31;;;17.35;58.91
56504;BME280;48812;51.606;-0.114;2023-03-13T11:37:52;98417.13;;;17.33;58.51
56504;BME280;48812;51.606;-0.114;2023-03-13T11:40:35;98433.16;;;17.33;58.12
56504;BME280;48812;51.606;-0.114;2023-03-13T12:04:48;98393.84;;;17.36;58.20
56504;BME280;48812;51.606;-0.114;2023-03-13T12:12:59;98392.84;;;17.37;58.91
56504;BME280;48812;51.606;-0.114;2023-03-13T12:18:08;98400.59;;;17.40;58.67
56504;BME280;48812;51.606;-0.114;2023-03-13T12:26:11;98389.66;;;17.43;58.40
56504;BME280;48812;51.606;-0.114;2023-03-13T12:31:31;98385.00;;;17.45;58.33
56504;BME280;48812;51.606;-0.114;2023-03-13T12:34:15;98408.22;;;17.44;58.05
56504;BME280;48812;51.606;-0.114;2023-03-13T12:37:08;98380.81;;;17.42;58.59
56504;BME280;48812;51.606;-0.114;2023-03-13T12:39:51;98368.28;;;17.43;58.84
56504;BME280;48812;51.606;-0.114;2023-03-13T12:42:35;98386.97;;;17.43;58.04
56504;BME280;48812;51.606;-0.114;2023-03-13T12:45:13;98386.28;;;17.41;58.07
56504;BME280;48812;51.606;-0.114;2023-03-13T12:48:08;98385.41;;;17.40;58.30
56504;BME280;48812;51.606;-0.114;2023-03-13T12:54:01;98365.03;;;17.39;58.17
56504;BME280;48812;51.606;-0.114;2023-03-13T12:59:15;98393.53;;;17.39;58.52
56504;BME280;48812;51.606;-0.114;2023-03-13T13:01:51;98374.84;;;17.39;58.25
56504;BME280;48812;51.606;-0.114;2023-03-13T13:04:25;98372.16;;;17.39;58.05
56504;BME280;48812;51.606;-0.114;2023-03-13T13:07:32;98377.50;;;17.39;58.14
56504;BME280;48812;51.606;-0.114;2023-03-13T13:10:22;98356.16;;;17.39;58.35
56504;BME280;48812;51.606;-0.114;2023-03-13T13:16:00;98345.75;;;17.36;58.28
56504;BME280;48812;51.606;-0.114;2023-03-13T13:18:33;98365.41;;;17.35;58.15
56504;BME280;48812;51.606;-0.114;2023-03-13T13:23:39;98346.25;;;17.29;58.10
56504;BME280;48812;51.606;-0.114;2023-03-13T13:39:44;98335.84;;;17.26;57.89
56504;BME280;48812;51.606;-0.114;2023-03-13T13:45:02;98326.56;;;17.30;58.10
56504;BME280;48812;51.606;-0.114;2023-03-13T13:47:35;98321.22;;;17.30;58.33
56504;BME280;48812;51.606;-0.114;2023-03-13T13:50:27;98324.63;;;17.32;58.34
56504;BME280;48812;51.606;-0.114;2023-03-13T13:55:50;98317.78;;;17.40;57.90
56504;BME280;48812;51.606;-0.114;2023-03-13T13:58:23;98313.16;;;17.42;57.68
56504;BME280;48812;51.606;-0.114;2023-03-13T14:01:00;98296.72;;;17.46;57.88
56504;BME280;48812;51.606;-0.114;2023-03-13T14:03:32;98306.19;;;17.50;57.50
56504;BME280;48812;51.606;-0.114;2023-03-13T14:06:14;98306.78;;;17.54;57.32
56504;BME280;48812;51.606;-0.114;2023-03-13T14:08:51;98286.81;;;17.58;57.82
56504;BME280;48812;51.606;-0.114;2023-03-13T14:11:27;98296.53;;;17.59;57.32
56504;BME280;48812;51.606;-0.114;2023-03-13T14:14:20;98271.50;;;17.60;57.43
56504;BME280;48812;51.606;-0.114;2023-03-13T14:16:53;98274.88;;;17.62;57.20
56504;BME280;48812;51.606;-0.114;2023-03-13T14:19:32;98257.84;;;17.63;57.65
56504;BME280;48812;51.606;-0.114;2023-03-13T14:22:07;98281.78;;;17.65;58.05
56504;BME280;48812;51.606;-0.114;2023-03-13T14:24:48;98258.47;;;17.67;57.90
56504;BME280;48812;51.606;-0.114;2023-03-13T14:27:30;98248.34;;;17.71;57.30
56504;BME280;48812;51.606;-0.114;2023-03-13T14:30:06;98233.72;;;17.75;57.37
56504;BME280;48812;51.606;-0.114;2023-03-13T14:32:40;98252.59;;;17.83;57.56
56504;BME280;48812;51.606;-0.114;2023-03-13T14:35:14;98234.59;;;17.85;57.55
56504;BME280;48812;51.606;-0.114;2023-03-13T14:37:49;98242.50;;;17.86;57.04
56504;BME280;48812;51.606;-0.114;2023-03-13T14:40:23;98247.66;;;17.88;57.80
56504;BME280;48812;51.606;-0.114;2023-03-13T14:42:59;98252.31;;;17.86;57.73
56504;BME280;48812;51.606;-0.114;2023-03-13T14:45:33;98238.13;;;17.85;57.37
56504;BME280;48812;51.606;-0.114;2023-03-13T14:48:39;98236.41;;;17.84;58.09
56504;BME280;48812;51.606;-0.114;2023-03-13T14:51:08;98231.34;;;17.81;57.16
56504;BME280;48812;51.606;-0.114;2023-03-13T14:53:56;98229.53;;;17.82;57.21
56504;BME280;48812;51.606;-0.114;2023-03-13T14:56:33;98237.53;;;17.82;57.43
56504;BME280;48812;51.606;-0.114;2023-03-13T14:59:07;98226.13;;;17.80;57.65
56504;BME280;48812;51.606;-0.114;2023-03-13T15:01:44;98237.81;;;17.79;57.79
56504;BME280;48812;51.606;-0.114;2023-03-13T15:04:33;98234.44;;;17.77;58.30
56504;BME280;48812;51.606;-0.114;2023-03-13T15:07:09;98233.56;;;17.76;57.31
56504;BME280;48812;51.606;-0.114;2023-03-13T15:09:42;98229.09;;;17.77;58.30
56504;BME280;48812;51.606;-0.114;2023-03-13T15:12:16;98229.09;;;17.77;57.61
56504;BME280;48812;51.606;-0.114;2023-03-13T15:14:50;98220.78;;;17.80;57.63
56504;BME280;48812;51.606;-0.114;2023-03-13T15:17:25;98221.38;;;17.83;58.22
56504;BME280;48812;51.606;-0.114;2023-03-13T15:19:57;98229.28;;;17.95;57.11
56504;BME280;48812;51.606;-0.114;2023-03-13T15:22:32;98211.84;;;18.10;57.54
56504;BME280;48812;51.606;-0.114;2023-03-13T15:25:13;98199.06;;;18.23;57.67
56504;BME280;48812;51.606;-0.114;2023-03-13T15:27:46;98205.56;;;18.40;56.61
56504;BME280;48812;51.606;-0.114;2023-03-13T15:30:20;98201.22;;;18.49;57.45